Mc Lemoresville, Tennessee
Current Conditions -  °F | °C
As of 7:55 AM on Thursday 30 Oct 2014 (Local Time) from KPHT Reporting Station
Clear Clear  
Wind Chill: 34°   Ceiling: Unl
Heat Index: 34°   Visibility: 10mi
Dew Point: 34°   Wind: 0mph
Humidity: 100%   Direction: NA
Pressure: 30.17"   Gusts: NA
Location:  35.9867°N, 88.5772°W
Report Text: KPHT 301255Z AUTO 00000KT 10SM CLR 01/01 A3017 RMK
Loading
Personal Weather Stations






























Interactive Weather Map
Tropical Storm Tracking
New forecast layout! Learn more

10-Day Weather Forecast

Advertisements
Track Severe Weather on mobile